Terminal Aerodrome Forecast
Issued by NWS

Home | Current Version | Previous Version | Text Only | Print | Product List | Glossary On
Versions: 1 2 3 4 5 6 7 8 9 10 11 12 13 14
000
FTUS45 KTFX 252343 RRA
TAFHVR
TAF
KHVR 252343Z 2600/2624 32014KT P6SM BKN100
     FM260200 01008KT P6SM SCT045 BKN120
     FM261900 29007KT P6SM SCT060 BKN110=

USA.gov is the U.S. government's official web portal to all federal, state and local government web resources and services.